sensor_id;sensor_type;location;lat;lon;timestamp;pressure;altitude;pressure_sealevel;temperature;humidity
19526;BME280;9907;42.676;26.348;2023-09-07T00:01:53;99270.91;;;22.15;50.24
19526;BME280;9907;42.676;26.348;2023-09-07T00:04:19;99265.66;;;22.07;50.30
19526;BME280;9907;42.676;26.348;2023-09-07T00:06:46;99276.78;;;22.12;48.82
19526;BME280;9907;42.676;26.348;2023-09-07T00:09:11;99266.75;;;22.19;48.44
19526;BME280;9907;42.676;26.348;2023-09-07T00:11:38;99263.59;;;22.16;49.60
19526;BME280;9907;42.676;26.348;2023-09-07T00:14:04;99256.69;;;22.13;49.82
19526;BME280;9907;42.676;26.348;2023-09-07T00:16:33;99268.19;;;22.15;49.07
19526;BME280;9907;42.676;26.348;2023-09-07T00:19:04;99264.22;;;22.18;48.76
19526;BME280;9907;42.676;26.348;2023-09-07T00:21:29;99261.91;;;22.21;48.11
19526;BME280;9907;42.676;26.348;2023-09-07T00:23:55;99275.94;;;22.25;48.76
19526;BME280;9907;42.676;26.348;2023-09-07T00:26:21;99270.06;;;22.21;48.64
19526;BME280;9907;42.676;26.348;2023-09-07T00:28:46;99267.16;;;22.23;48.24
19526;BME280;9907;42.676;26.348;2023-09-07T00:31:12;99273.22;;;22.25;48.90
19526;BME280;9907;42.676;26.348;2023-09-07T00:33:37;99263.19;;;22.19;48.72
19526;BME280;9907;42.676;26.348;2023-09-07T00:36:03;99264.63;;;22.21;48.65
19526;BME280;9907;42.676;26.348;2023-09-07T00:38:29;99271.75;;;22.22;47.97
19526;BME280;9907;42.676;26.348;2023-09-07T00:40:54;99274.91;;;22.32;47.66
19526;BME280;9907;42.676;26.348;2023-09-07T00:43:20;99268.84;;;22.24;48.58
19526;BME280;9907;42.676;26.348;2023-09-07T00:45:45;99257.53;;;22.20;48.91
19526;BME280;9907;42.676;26.348;2023-09-07T00:48:12;99266.75;;;22.19;48.32
19526;BME280;9907;42.676;26.348;2023-09-07T00:50:39;99264.25;;;22.24;47.68
19526;BME280;9907;42.676;26.348;2023-09-07T00:53:04;99265.06;;;22.18;48.01
19526;BME280;9907;42.676;26.348;2023-09-07T00:55:32;99276.78;;;22.19;47.95
19526;BME280;9907;42.676;26.348;2023-09-07T00:58:00;99260.47;;;22.25;46.92
19526;BME280;9907;42.676;26.348;2023-09-07T01:00:25;99260.66;;;22.17;47.51
19526;BME280;9907;42.676;26.348;2023-09-07T01:02:51;99265.47;;;22.15;47.40
19526;BME280;9907;42.676;26.348;2023-09-07T01:05:16;99263.59;;;22.22;46.44
19526;BME280;9907;42.676;26.348;2023-09-07T01:07:54;99263.78;;;22.14;48.03
19526;BME280;9907;42.676;26.348;2023-09-07T01:10:22;99251.22;;;22.07;48.35
19526;BME280;9907;42.676;26.348;2023-09-07T01:12:48;99256.88;;;22.05;47.79
19526;BME280;9907;42.676;26.348;2023-09-07T01:15:14;99251.03;;;22.08;47.01
19526;BME280;9907;42.676;26.348;2023-09-07T01:17:39;99259.84;;;22.17;46.13
19526;BME280;9907;42.676;26.348;2023-09-07T01:20:07;99263.38;;;22.17;46.03
19526;BME280;9907;42.676;26.348;2023-09-07T01:22:36;99259.59;;;22.12;46.84
19526;BME280;9907;42.676;26.348;2023-09-07T01:25:02;99260.44;;;22.12;46.62
19526;BME280;9907;42.676;26.348;2023-09-07T01:27:29;99251.88;;;22.15;46.16
19526;BME280;9907;42.676;26.348;2023-09-07T01:29:54;99246.44;;;22.15;46.48
19526;BME280;9907;42.676;26.348;2023-09-07T01:32:20;99243.91;;;22.14;45.80
19526;BME280;9907;42.676;26.348;2023-09-07T01:34:46;99241.81;;;22.09;46.11
19526;BME280;9907;42.676;26.348;2023-09-07T01:37:11;99243.28;;;22.12;45.51
19526;BME280;9907;42.676;26.348;2023-09-07T01:39:37;99236.56;;;22.14;45.65
19526;BME280;9907;42.676;26.348;2023-09-07T01:42:02;99240.56;;;22.12;46.24
19526;BME280;9907;42.676;26.348;2023-09-07T01:44:28;99235.72;;;22.07;45.85
19526;BME280;9907;42.676;26.348;2023-09-07T01:46:55;99232.41;;;22.05;46.61
19526;BME280;9907;42.676;26.348;2023-09-07T01:49:20;99240.75;;;22.10;46.11
19526;BME280;9907;42.676;26.348;2023-09-07T01:51:46;99236.38;;;22.09;46.14
19526;BME280;9907;42.676;26.348;2023-09-07T01:54:11;99242.44;;;22.11;46.25
19526;BME280;9907;42.676;26.348;2023-09-07T01:56:37;99243.72;;;22.15;45.55
19526;BME280;9907;42.676;26.348;2023-09-07T01:59:04;99252.47;;;22.17;45.98
19526;BME280;9907;42.676;26.348;2023-09-07T02:01:31;99242.66;;;22.16;45.63
19526;BME280;9907;42.676;26.348;2023-09-07T02:03:57;99237.22;;;22.16;45.75
19526;BME280;9907;42.676;26.348;2023-09-07T02:06:22;99240.97;;;22.15;45.53
19526;BME280;9907;42.676;26.348;2023-09-07T02:08:48;99243.28;;;22.12;46.21
19526;BME280;9907;42.676;26.348;2023-09-07T02:11:14;99245.16;;;22.11;45.61
19526;BME280;9907;42.676;26.348;2023-09-07T02:13:44;99247.88;;;22.11;46.15
19526;BME280;9907;42.676;26.348;2023-09-07T02:16:09;99242.25;;;22.13;46.18
19526;BME280;9907;42.676;26.348;2023-09-07T02:18:35;99245.56;;;22.08;46.19
19526;BME280;9907;42.676;26.348;2023-09-07T02:21:05;99244.31;;;22.04;46.06
19526;BME280;9907;42.676;26.348;2023-09-07T02:23:34;99241.78;;;22.03;46.73
19526;BME280;9907;42.676;26.348;2023-09-07T02:26:02;99242.00;;;21.95;46.42
19526;BME280;9907;42.676;26.348;2023-09-07T02:28:28;99239.06;;;21.96;46.57
19526;BME280;9907;42.676;26.348;2023-09-07T02:30:53;99235.44;;;21.89;46.78
19526;BME280;9907;42.676;26.348;2023-09-07T02:33:19;99234.81;;;21.87;46.39
19526;BME280;9907;42.676;26.348;2023-09-07T02:35:44;99238.59;;;21.86;46.37
19526;BME280;9907;42.676;26.348;2023-09-07T02:38:10;99237.31;;;21.82;46.20
19526;BME280;9907;42.676;26.348;2023-09-07T02:40:43;99223.72;;;21.82;45.59
19526;BME280;9907;42.676;26.348;2023-09-07T02:43:10;99226.28;;;21.97;44.45
19526;BME280;9907;42.676;26.348;2023-09-07T02:45:35;99234.03;;;22.06;44.18
19526;BME280;9907;42.676;26.348;2023-09-07T02:48:01;99230.94;;;22.16;43.46
19526;BME280;9907;42.676;26.348;2023-09-07T02:51:01;99232.81;;;22.15;43.46
19526;BME280;9907;42.676;26.348;2023-09-07T02:53:26;99231.38;;;22.19;42.90
19526;BME280;9907;42.676;26.348;2023-09-07T02:55:52;99234.94;;;22.26;42.77
19526;BME280;9907;42.676;26.348;2023-09-07T02:58:17;99233.66;;;22.22;42.68
19526;BME280;9907;42.676;26.348;2023-09-07T03:00:44;99228.66;;;22.19;42.99
19526;BME280;9907;42.676;26.348;2023-09-07T03:03:10;99229.91;;;22.23;43.19
19526;BME280;9907;42.676;26.348;2023-09-07T03:05:38;99235.97;;;22.25;42.84
19526;BME280;9907;42.676;26.348;2023-09-07T03:08:03;99231.38;;;22.26;42.61
19526;BME280;9907;42.676;26.348;2023-09-07T03:10:29;99221.94;;;22.28;42.61
19526;BME280;9907;42.676;26.348;2023-09-07T03:12:55;99216.31;;;22.30;42.57
19526;BME280;9907;42.676;26.348;2023-09-07T03:15:20;99225.09;;;22.32;42.36
19526;BME280;9907;42.676;26.348;2023-09-07T03:17:45;99234.50;;;22.29;42.37
19526;BME280;9907;42.676;26.348;2023-09-07T03:20:11;99224.28;;;22.31;42.20
19526;BME280;9907;42.676;26.348;2023-09-07T03:22:42;99235.56;;;22.42;41.87
19526;BME280;9907;42.676;26.348;2023-09-07T03:25:08;99234.94;;;22.40;42.10
19526;BME280;9907;42.676;26.348;2023-09-07T03:27:35;99223.84;;;22.41;41.35
19526;BME280;9907;42.676;26.348;2023-09-07T03:30:02;99234.72;;;22.48;41.77
19526;BME280;9907;42.676;26.348;2023-09-07T03:32:27;99241.25;;;22.47;42.17
19526;BME280;9907;42.676;26.348;2023-09-07T03:34:58;99242.06;;;22.27;43.96
19526;BME280;9907;42.676;26.348;2023-09-07T03:37:23;99254.56;;;22.09;45.55
19526;BME280;9907;42.676;26.348;2023-09-07T03:39:50;99249.56;;;22.06;44.58
19526;BME280;9907;42.676;26.348;2023-09-07T03:42:15;99250.59;;;22.05;46.29
19526;BME280;9907;42.676;26.348;2023-09-07T03:44:41;99254.09;;;21.92;46.96
19526;BME280;9907;42.676;26.348;2023-09-07T03:47:06;99268.00;;;21.69;47.60
19526;BME280;9907;42.676;26.348;2023-09-07T03:49:32;99258.53;;;21.59;47.88
19526;BME280;9907;42.676;26.348;2023-09-07T03:51:57;99269.84;;;21.62;48.10
19526;BME280;9907;42.676;26.348;2023-09-07T03:54:23;99270.66;;;21.50;48.36
19526;BME280;9907;42.676;26.348;2023-09-07T03:56:48;99264.22;;;21.23;48.94
19526;BME280;9907;42.676;26.348;2023-09-07T03:59:13;99266.97;;;21.29;49.19
19526;BME280;9907;42.676;26.348;2023-09-07T04:01:39;99265.66;;;21.53;48.58
19526;BME280;9907;42.676;26.348;2023-09-07T04:04:04;99252.69;;;21.55;48.48
19526;BME280;9907;42.676;26.348;2023-09-07T04:06:30;99273.38;;;21.15;48.91
19526;BME280;9907;42.676;26.348;2023-09-07T04:08:56;99258.34;;;21.19;49.07
19526;BME280;9907;42.676;26.348;2023-09-07T04:11:21;99264.47;;;21.28;49.03
19526;BME280;9907;42.676;26.348;2023-09-07T04:13:46;99264.47;;;21.28;48.62
19526;BME280;9907;42.676;26.348;2023-09-07T04:16:12;99269.66;;;21.23;49.11
19526;BME280;9907;42.676;26.348;2023-09-07T04:18:37;99278.06;;;21.28;48.77
19526;BME280;9907;42.676;26.348;2023-09-07T04:21:07;99282.81;;;21.19;49.38
19526;BME280;9907;42.676;26.348;2023-09-07T04:23:33;99276.81;;;21.30;48.80
19526;BME280;9907;42.676;26.348;2023-09-07T04:26:05;99265.53;;;21.33;48.68
19526;BME280;9907;42.676;26.348;2023-09-07T04:28:31;99268.09;;;21.42;49.18
19526;BME280;9907;42.676;26.348;2023-09-07T04:30:56;99271.94;;;21.54;49.33
19526;BME280;9907;42.676;26.348;2023-09-07T04:33:22;99278.38;;;21.46;49.79
19526;BME280;9907;42.676;26.348;2023-09-07T04:35:47;99268.19;;;21.61;49.12
19526;BME280;9907;42.676;26.348;2023-09-07T04:38:12;99273.28;;;21.84;48.24
19526;BME280;9907;42.676;26.348;2023-09-07T04:40:38;99263.63;;;22.55;45.85
19526;BME280;9907;42.676;26.348;2023-09-07T04:43:03;99263.88;;;22.93;45.34
19526;BME280;9907;42.676;26.348;2023-09-07T04:45:29;99281.88;;;23.20;44.48
19526;BME280;9907;42.676;26.348;2023-09-07T04:47:54;99259.78;;;23.55;44.17
19526;BME280;9907;42.676;26.348;2023-09-07T04:50:20;99262.84;;;23.78;43.84
19526;BME280;9907;42.676;26.348;2023-09-07T04:52:45;99273.81;;;24.03;43.12
19526;BME280;9907;42.676;26.348;2023-09-07T04:55:11;99265.00;;;24.07;43.28
19526;BME280;9907;42.676;26.348;2023-09-07T04:57:36;99270.13;;;24.29;42.90
19526;BME280;9907;42.676;26.348;2023-09-07T05:00:04;99265.47;;;24.36;43.05
19526;BME280;9907;42.676;26.348;2023-09-07T05:02:30;99265.00;;;24.45;43.42
19526;BME280;9907;42.676;26.348;2023-09-07T05:04:55;99274.09;;;24.64;42.79
19526;BME280;9907;42.676;26.348;2023-09-07T05:07:21;99264.41;;;24.68;42.86
19526;BME280;9907;42.676;26.348;2023-09-07T05:09:46;99256.81;;;24.95;42.40
19526;BME280;9907;42.676;26.348;2023-09-07T05:12:14;99262.44;;;24.75;43.04
19526;BME280;9907;42.676;26.348;2023-09-07T05:14:39;99271.72;;;24.99;42.51
19526;BME280;9907;42.676;26.348;2023-09-07T05:17:05;99269.31;;;25.09;42.55
19526;BME280;9907;42.676;26.348;2023-09-07T05:19:30;99263.59;;;25.10;42.91
19526;BME280;9907;42.676;26.348;2023-09-07T05:21:56;99267.22;;;25.29;42.65
19526;BME280;9907;42.676;26.348;2023-09-07T05:24:21;99281.94;;;25.28;42.28
19526;BME280;9907;42.676;26.348;2023-09-07T05:26:46;99271.53;;;25.37;42.22
19526;BME280;9907;42.676;26.348;2023-09-07T05:29:12;99268.53;;;25.63;42.40
19526;BME280;9907;42.676;26.348;2023-09-07T05:31:38;99277.66;;;25.57;42.23
19526;BME280;9907;42.676;26.348;2023-09-07T05:34:03;99268.66;;;25.50;42.50
19526;BME280;9907;42.676;26.348;2023-09-07T05:36:29;99292.84;;;25.71;43.06
19526;BME280;9907;42.676;26.348;2023-09-07T05:38:54;99271.81;;;25.72;42.62
19526;BME280;9907;42.676;26.348;2023-09-07T05:41:20;99283.88;;;25.82;42.77
19526;BME280;9907;42.676;26.348;2023-09-07T05:43:45;99292.31;;;25.81;43.18
19526;BME280;9907;42.676;26.348;2023-09-07T05:46:11;99282.03;;;25.94;43.29
19526;BME280;9907;42.676;26.348;2023-09-07T05:48:36;99278.81;;;26.15;42.01
19526;BME280;9907;42.676;26.348;2023-09-07T05:51:02;99285.53;;;26.20;42.65
19526;BME280;9907;42.676;26.348;2023-09-07T05:53:28;99282.44;;;26.28;42.62
19526;BME280;9907;42.676;26.348;2023-09-07T05:55:54;99287.91;;;26.28;42.61
19526;BME280;9907;42.676;26.348;2023-09-07T05:58:19;99285.06;;;26.23;44.02
19526;BME280;9907;42.676;26.348;2023-09-07T06:00:45;99273.56;;;26.44;42.86
19526;BME280;9907;42.676;26.348;2023-09-07T06:03:11;99284.09;;;26.58;43.15
19526;BME280;9907;42.676;26.348;2023-09-07T06:06:08;99282.72;;;26.38;43.10
19526;BME280;9907;42.676;26.348;2023-09-07T06:08:34;99291.00;;;26.61;42.99
19526;BME280;9907;42.676;26.348;2023-09-07T06:10:59;99292.91;;;26.60;42.87
19526;BME280;9907;42.676;26.348;2023-09-07T06:13:25;99291.13;;;26.66;43.22
19526;BME280;9907;42.676;26.348;2023-09-07T06:15:50;99298.88;;;26.69;43.58
19526;BME280;9907;42.676;26.348;2023-09-07T06:18:16;99281.13;;;26.60;43.48
19526;BME280;9907;42.676;26.348;2023-09-07T06:20:41;99310.78;;;26.63;42.54
19526;BME280;9907;42.676;26.348;2023-09-07T06:23:07;99302.22;;;26.71;43.06
19526;BME280;9907;42.676;26.348;2023-09-07T06:25:32;99287.44;;;26.72;43.68
19526;BME280;9907;42.676;26.348;2023-09-07T06:27:57;99287.16;;;26.92;43.07
19526;BME280;9907;42.676;26.348;2023-09-07T06:30:23;99291.22;;;26.89;43.29
19526;BME280;9907;42.676;26.348;2023-09-07T06:32:48;99291.34;;;27.18;42.15
19526;BME280;9907;42.676;26.348;2023-09-07T06:35:16;99280.50;;;26.99;42.02
19526;BME280;9907;42.676;26.348;2023-09-07T06:37:43;99301.25;;;27.19;42.28
19526;BME280;9907;42.676;26.348;2023-09-07T06:40:09;99312.03;;;26.90;42.49
19526;BME280;9907;42.676;26.348;2023-09-07T06:42:35;99287.84;;;26.87;42.77
19526;BME280;9907;42.676;26.348;2023-09-07T06:45:00;99285.84;;;27.06;43.02
19526;BME280;9907;42.676;26.348;2023-09-07T06:47:26;99276.31;;;27.20;42.04
19526;BME280;9907;42.676;26.348;2023-09-07T06:49:51;99286.56;;;27.13;42.45
19526;BME280;9907;42.676;26.348;2023-09-07T06:52:17;99288.59;;;27.29;42.27
19526;BME280;9907;42.676;26.348;2023-09-07T06:54:42;99295.63;;;27.37;41.50
19526;BME280;9907;42.676;26.348;2023-09-07T06:57:08;99312.66;;;27.39;42.28
19526;BME280;9907;42.676;26.348;2023-09-07T06:59:36;99280.38;;;27.41;42.11
19526;BME280;9907;42.676;26.348;2023-09-07T07:02:01;99278.09;;;27.61;41.92
19526;BME280;9907;42.676;26.348;2023-09-07T07:04:30;99286.44;;;27.66;41.52
19526;BME280;9907;42.676;26.348;2023-09-07T07:06:55;99284.53;;;27.67;41.18
19526;BME280;9907;42.676;26.348;2023-09-07T07:09:21;99284.19;;;27.40;40.94
19526;BME280;9907;42.676;26.348;2023-09-07T07:11:46;99293.25;;;27.40;41.24
19526;BME280;9907;42.676;26.348;2023-09-07T07:14:30;99292.06;;;27.60;40.82
19526;BME280;9907;42.676;26.348;2023-09-07T07:16:55;99288.13;;;27.67;41.26
19526;BME280;9907;42.676;26.348;2023-09-07T07:19:21;99298.63;;;27.58;40.78
19526;BME280;9907;42.676;26.348;2023-09-07T07:21:48;99287.88;;;27.57;42.09
19526;BME280;9907;42.676;26.348;2023-09-07T07:24:13;99282.13;;;27.82;41.56
19526;BME280;9907;42.676;26.348;2023-09-07T07:26:39;99296.69;;;27.82;41.38
19526;BME280;9907;42.676;26.348;2023-09-07T07:29:06;99280.41;;;27.92;40.03
19526;BME280;9907;42.676;26.348;2023-09-07T07:31:31;99286.66;;;28.16;39.54
19526;BME280;9907;42.676;26.348;2023-09-07T07:33:57;99292.72;;;28.30;40.28
19526;BME280;9907;42.676;26.348;2023-09-07T07:36:22;99276.47;;;28.28;40.66
19526;BME280;9907;42.676;26.348;2023-09-07T07:38:48;99281.72;;;28.30;40.40
19526;BME280;9907;42.676;26.348;2023-09-07T07:41:13;99290.75;;;28.02;39.19
19526;BME280;9907;42.676;26.348;2023-09-07T07:43:39;99287.16;;;28.13;39.32
19526;BME280;9907;42.676;26.348;2023-09-07T07:46:04;99278.84;;;28.08;41.37
19526;BME280;9907;42.676;26.348;2023-09-07T07:48:30;99288.06;;;28.30;41.13
19526;BME280;9907;42.676;26.348;2023-09-07T07:50:55;99292.25;;;28.49;41.09
19526;BME280;9907;42.676;26.348;2023-09-07T07:53:21;99282.84;;;28.62;40.48
19526;BME280;9907;42.676;26.348;2023-09-07T07:55:46;99294.84;;;28.56;40.82
19526;BME280;9907;42.676;26.348;2023-09-07T07:58:14;99297.31;;;28.41;42.69
19526;BME280;9907;42.676;26.348;2023-09-07T08:00:39;99308.84;;;28.26;42.10
19526;BME280;9907;42.676;26.348;2023-09-07T08:03:06;99295.25;;;28.48;40.65
19526;BME280;9907;42.676;26.348;2023-09-07T08:05:32;99294.34;;;28.59;40.93
19526;BME280;9907;42.676;26.348;2023-09-07T08:07:58;99288.88;;;28.76;41.39
19526;BME280;9907;42.676;26.348;2023-09-07T08:10:23;99291.59;;;28.59;42.07
19526;BME280;9907;42.676;26.348;2023-09-07T08:12:53;99299.34;;;28.62;40.42
19526;BME280;9907;42.676;26.348;2023-09-07T08:15:19;99304.56;;;28.47;39.94
19526;BME280;9907;42.676;26.348;2023-09-07T08:17:47;99287.78;;;28.60;40.93
19526;BME280;9907;42.676;26.348;2023-09-07T08:20:13;99284.84;;;28.78;39.99
19526;BME280;9907;42.676;26.348;2023-09-07T08:22:39;99286.66;;;28.73;39.95
19526;BME280;9907;42.676;26.348;2023-09-07T08:25:10;99285.81;;;28.72;39.28
19526;BME280;9907;42.676;26.348;2023-09-07T08:27:36;99297.97;;;28.76;39.72
19526;BME280;9907;42.676;26.348;2023-09-07T08:30:02;99290.34;;;28.78;39.79
19526;BME280;9907;42.676;26.348;2023-09-07T08:32:28;99298.75;;;28.88;39.21
19526;BME280;9907;42.676;26.348;2023-09-07T08:34:55;99297.53;;;28.68;40.01
19526;BME280;9907;42.676;26.348;2023-09-07T08:37:21;99291.56;;;28.87;39.17
19526;BME280;9907;42.676;26.348;2023-09-07T08:39:47;99304.81;;;29.07;38.92
19526;BME280;9907;42.676;26.348;2023-09-07T08:42:12;99288.25;;;28.85;39.17
19526;BME280;9907;42.676;26.348;2023-09-07T08:44:40;99285.41;;;29.14;38.89
19526;BME280;9907;42.676;26.348;2023-09-07T08:47:08;99301.50;;;28.88;39.85
19526;BME280;9907;42.676;26.348;2023-09-07T08:49:34;99294.16;;;28.94;38.61
19526;BME280;9907;42.676;26.348;2023-09-07T08:52:02;99293.25;;;28.88;38.45
19526;BME280;9907;42.676;26.348;2023-09-07T08:54:30;99294.06;;;29.06;39.20
19526;BME280;9907;42.676;26.348;2023-09-07T08:56:57;99298.41;;;29.35;39.08
19526;BME280;9907;42.676;26.348;2023-09-07T08:59:23;99304.09;;;29.28;39.35
19526;BME280;9907;42.676;26.348;2023-09-07T09:01:49;99292.25;;;29.28;37.43
19526;BME280;9907;42.676;26.348;2023-09-07T09:04:15;99301.56;;;29.27;38.20
19526;BME280;9907;42.676;26.348;2023-09-07T09:06:41;99309.50;;;29.07;38.34
19526;BME280;9907;42.676;26.348;2023-09-07T09:09:06;99328.16;;;29.05;38.99
19526;BME280;9907;42.676;26.348;2023-09-07T09:11:32;99293.16;;;28.83;39.02
19526;BME280;9907;42.676;26.348;2023-09-07T09:13:57;99294.34;;;29.04;39.49
19526;BME280;9907;42.676;26.348;2023-09-07T09:16:23;99293.16;;;29.00;38.79
19526;BME280;9907;42.676;26.348;2023-09-07T09:18:49;99291.91;;;29.08;39.55
19526;BME280;9907;42.676;26.348;2023-09-07T09:21:18;99296.66;;;28.95;39.60
19526;BME280;9907;42.676;26.348;2023-09-07T09:23:43;99293.56;;;28.92;39.16
19526;BME280;9907;42.676;26.348;2023-09-07T09:26:09;99298.81;;;28.20;39.17
19526;BME280;9907;42.676;26.348;2023-09-07T09:28:35;99280.91;;;28.46;39.24
19526;BME280;9907;42.676;26.348;2023-09-07T09:31:01;99297.09;;;28.59;40.02
19526;BME280;9907;42.676;26.348;2023-09-07T09:33:31;99288.56;;;28.72;38.82
19526;BME280;9907;42.676;26.348;2023-09-07T09:35:57;99278.66;;;28.71;39.10
19526;BME280;9907;42.676;26.348;2023-09-07T09:38:23;99270.28;;;28.66;39.59
19526;BME280;9907;42.676;26.348;2023-09-07T09:40:51;99272.03;;;28.56;39.09
19526;BME280;9907;42.676;26.348;2023-09-07T09:43:19;99276.19;;;28.41;39.63
19526;BME280;9907;42.676;26.348;2023-09-07T09:45:45;99282.09;;;28.50;39.36
19526;BME280;9907;42.676;26.348;2023-09-07T09:48:11;99265.88;;;28.20;39.51
19526;BME280;9907;42.676;26.348;2023-09-07T09:50:39;99266.63;;;28.16;39.45
19526;BME280;9907;42.676;26.348;2023-09-07T09:53:06;99272.59;;;28.13;38.87
19526;BME280;9907;42.676;26.348;2023-09-07T09:55:35;99259.47;;;28.15;39.23
19526;BME280;9907;42.676;26.348;2023-09-07T09:58:00;99268.34;;;27.93;38.33
19526;BME280;9907;42.676;26.348;2023-09-07T10:00:27;99252.66;;;28.05;38.64
19526;BME280;9907;42.676;26.348;2023-09-07T10:03:21;99257.81;;;28.02;39.08
19526;BME280;9907;42.676;26.348;2023-09-07T10:05:49;99251.38;;;28.08;38.51
19526;BME280;9907;42.676;26.348;2023-09-07T10:08:17;99254.13;;;27.96;39.47
19526;BME280;9907;42.676;26.348;2023-09-07T10:10:46;99250.59;;;27.84;38.55
19526;BME280;9907;42.676;26.348;2023-09-07T10:13:15;99248.16;;;27.99;39.38
19526;BME280;9907;42.676;26.348;2023-09-07T10:15:41;99261.88;;;27.99;38.47
19526;BME280;9907;42.676;26.348;2023-09-07T10:18:09;99258.09;;;27.89;38.93
19526;BME280;9907;42.676;26.348;2023-09-07T10:20:56;99251.59;;;27.78;39.97
19526;BME280;9907;42.676;26.348;2023-09-07T10:23:40;99261.63;;;27.61;38.46
19526;BME280;9907;42.676;26.348;2023-09-07T10:26:13;99245.59;;;27.81;39.44
19526;BME280;9907;42.676;26.348;2023-09-07T10:28:40;99248.34;;;27.81;39.61
19526;BME280;9907;42.676;26.348;2023-09-07T10:31:07;99238.97;;;27.94;38.42
19526;BME280;9907;42.676;26.348;2023-09-07T10:33:38;99244.38;;;27.89;39.00
19526;BME280;9907;42.676;26.348;2023-09-07T10:36:04;99254.28;;;27.90;38.93
19526;BME280;9907;42.676;26.348;2023-09-07T10:38:36;99244.91;;;27.74;39.13
19526;BME280;9907;42.676;26.348;2023-09-07T10:41:04;99257.94;;;27.67;39.66
19526;BME280;9907;42.676;26.348;2023-09-07T10:43:32;99263.31;;;27.62;40.11
19526;BME280;9907;42.676;26.348;2023-09-07T10:45:59;99238.72;;;27.67;39.70
19526;BME280;9907;42.676;26.348;2023-09-07T10:48:26;99259.16;;;27.60;38.58
19526;BME280;9907;42.676;26.348;2023-09-07T10:50:54;99227.06;;;27.60;38.37
19526;BME280;9907;42.676;26.348;2023-09-07T10:53:30;99231.56;;;27.66;39.24
19526;BME280;9907;42.676;26.348;2023-09-07T10:56:03;99229.50;;;27.73;40.03
19526;BME280;9907;42.676;26.348;2023-09-07T10:58:33;99239.66;;;27.73;39.10
19526;BME280;9907;42.676;26.348;2023-09-07T11:01:00;99241.56;;;27.72;38.51
19526;BME280;9907;42.676;26.348;2023-09-07T11:03:27;99233.81;;;27.69;38.93
19526;BME280;9907;42.676;26.348;2023-09-07T11:06:16;99231.75;;;27.76;40.62
19526;BME280;9907;42.676;26.348;2023-09-07T11:08:45;99224.44;;;27.93;40.48
19526;BME280;9907;42.676;26.348;2023-09-07T11:11:11;99225.34;;;27.99;39.95
19526;BME280;9907;42.676;26.348;2023-09-07T11:13:37;99233.00;;;27.97;39.42
19526;BME280;9907;42.676;26.348;2023-09-07T11:16:03;99227.03;;;28.00;39.84
19526;BME280;9907;42.676;26.348;2023-09-07T11:18:33;99227.75;;;27.95;40.41
19526;BME280;9907;42.676;26.348;2023-09-07T11:21:01;99222.91;;;27.86;39.78
19526;BME280;9907;42.676;26.348;2023-09-07T11:23:30;99224.31;;;27.88;38.28
19526;BME280;9907;42.676;26.348;2023-09-07T11:26:03;99223.63;;;27.81;37.39
19526;BME280;9907;42.676;26.348;2023-09-07T11:28:30;99215.97;;;27.83;38.44
19526;BME280;9907;42.676;26.348;2023-09-07T11:30:55;99213.53;;;27.98;39.10
19526;BME280;9907;42.676;26.348;2023-09-07T11:33:22;99200.53;;;27.94;38.85
19526;BME280;9907;42.676;26.348;2023-09-07T11:35:48;99196.56;;;28.01;40.00
19526;BME280;9907;42.676;26.348;2023-09-07T11:38:15;99200.88;;;27.97;40.13
19526;BME280;9907;42.676;26.348;2023-09-07T11:40:41;99198.94;;;28.10;39.91
19526;BME280;9907;42.676;26.348;2023-09-07T11:43:17;99206.72;;;28.46;39.55
19526;BME280;9907;42.676;26.348;2023-09-07T11:45:46;99197.56;;;28.24;39.92
19526;BME280;9907;42.676;26.348;2023-09-07T11:48:12;99194.28;;;28.10;40.40
19526;BME280;9907;42.676;26.348;2023-09-07T11:50:38;99184.97;;;28.11;40.71
19526;BME280;9907;42.676;26.348;2023-09-07T11:53:05;99197.56;;;27.95;41.38
19526;BME280;9907;42.676;26.348;2023-09-07T11:55:31;99182.31;;;27.88;40.57
19526;BME280;9907;42.676;26.348;2023-09-07T11:57:56;99187.97;;;27.81;40.72
19526;BME280;9907;42.676;26.348;2023-09-07T12:00:23;99191.88;;;27.85;40.87
19526;BME280;9907;42.676;26.348;2023-09-07T12:02:49;99178.34;;;27.95;41.26
19526;BME280;9907;42.676;26.348;2023-09-07T12:05:14;99176.16;;;27.97;41.00
19526;BME280;9907;42.676;26.348;2023-09-07T12:07:41;99166.47;;;28.06;41.26
19526;BME280;9907;42.676;26.348;2023-09-07T12:10:08;99172.09;;;28.12;40.28
19526;BME280;9907;42.676;26.348;2023-09-07T12:12:37;99162.00;;;28.17;40.86
19526;BME280;9907;42.676;26.348;2023-09-07T12:15:03;99164.31;;;28.09;41.52
19526;BME280;9907;42.676;26.348;2023-09-07T12:17:30;99176.78;;;27.99;41.13
19526;BME280;9907;42.676;26.348;2023-09-07T12:19:55;99155.81;;;27.93;41.33
19526;BME280;9907;42.676;26.348;2023-09-07T12:22:21;99161.31;;;27.93;41.23
19526;BME280;9907;42.676;26.348;2023-09-07T12:24:46;99169.22;;;28.06;41.58
19526;BME280;9907;42.676;26.348;2023-09-07T12:27:12;99151.69;;;28.08;41.05
19526;BME280;9907;42.676;26.348;2023-09-07T12:29:37;99157.56;;;27.99;40.63
19526;BME280;9907;42.676;26.348;2023-09-07T12:32:03;99152.16;;;28.04;41.23
19526;BME280;9907;42.676;26.348;2023-09-07T12:34:29;99163.53;;;27.96;40.47
19526;BME280;9907;42.676;26.348;2023-09-07T12:36:54;99167.25;;;27.90;41.15
19526;BME280;9907;42.676;26.348;2023-09-07T12:39:20;99155.25;;;27.80;41.65
19526;BME280;9907;42.676;26.348;2023-09-07T12:41:45;99158.84;;;27.80;41.67
19526;BME280;9907;42.676;26.348;2023-09-07T12:44:10;99158.34;;;27.83;41.72
19526;BME280;9907;42.676;26.348;2023-09-07T12:46:36;99157.78;;;27.81;41.76
19526;BME280;9907;42.676;26.348;2023-09-07T12:49:02;99159.91;;;27.79;41.99
19526;BME280;9907;42.676;26.348;2023-09-07T12:51:28;99157.38;;;27.89;41.31
19526;BME280;9907;42.676;26.348;2023-09-07T12:53:53;99150.78;;;27.90;41.29
19526;BME280;9907;42.676;26.348;2023-09-07T12:56:19;99139.34;;;27.93;41.37
19526;BME280;9907;42.676;26.348;2023-09-07T12:58:44;99146.34;;;28.01;41.79